sensor_id;sensor_type;location;lat;lon;timestamp;P1;durP1;ratioP1;P2;durP2;ratioP2
18526;SDS011;9393;42.158;24.748;2023-06-05T00:01:39;13.43;;;3.30;;
18526;SDS011;9393;42.158;24.748;2023-06-05T00:04:42;8.00;;;2.63;;
18526;SDS011;9393;42.158;24.748;2023-06-05T00:07:46;6.63;;;2.70;;
18526;SDS011;9393;42.158;24.748;2023-06-05T00:10:50;11.80;;;3.23;;
18526;SDS011;9393;42.158;24.748;2023-06-05T00:13:55;14.87;;;3.10;;
18526;SDS011;9393;42.158;24.748;2023-06-05T00:16:59;11.93;;;2.50;;
18526;SDS011;9393;42.158;24.748;2023-06-05T00:20:03;12.93;;;3.60;;
18526;SDS011;9393;42.158;24.748;2023-06-05T00:23:12;7.07;;;2.87;;
18526;SDS011;9393;42.158;24.748;2023-06-05T00:26:16;10.30;;;2.77;;
18526;SDS011;9393;42.158;24.748;2023-06-05T00:29:22;12.00;;;3.07;;
18526;SDS011;9393;42.158;24.748;2023-06-05T00:32:28;10.00;;;3.07;;
18526;SDS011;9393;42.158;24.748;2023-06-05T00:35:31;6.87;;;2.60;;
18526;SDS011;9393;42.158;24.748;2023-06-05T00:38:35;9.57;;;3.10;;
18526;SDS011;9393;42.158;24.748;2023-06-05T00:41:38;15.63;;;3.70;;
18526;SDS011;9393;42.158;24.748;2023-06-05T00:44:45;11.13;;;2.90;;
18526;SDS011;9393;42.158;24.748;2023-06-05T00:47:51;8.40;;;3.13;;
18526;SDS011;9393;42.158;24.748;2023-06-05T00:50:55;11.37;;;2.80;;
18526;SDS011;9393;42.158;24.748;2023-06-05T00:53:59;10.40;;;2.57;;
18526;SDS011;9393;42.158;24.748;2023-06-05T00:57:03;9.03;;;2.73;;
18526;SDS011;9393;42.158;24.748;2023-06-05T01:00:10;6.20;;;2.90;;
18526;SDS011;9393;42.158;24.748;2023-06-05T01:03:15;8.67;;;2.80;;
18526;SDS011;9393;42.158;24.748;2023-06-05T01:06:21;7.13;;;2.80;;
18526;SDS011;9393;42.158;24.748;2023-06-05T01:09:25;11.10;;;2.50;;
18526;SDS011;9393;42.158;24.748;2023-06-05T01:12:30;6.00;;;2.87;;
18526;SDS011;9393;42.158;24.748;2023-06-05T01:15:41;7.77;;;2.70;;
18526;SDS011;9393;42.158;24.748;2023-06-05T01:18:45;7.83;;;3.17;;
18526;SDS011;9393;42.158;24.748;2023-06-05T01:21:49;10.40;;;3.23;;
18526;SDS011;9393;42.158;24.748;2023-06-05T01:24:54;10.73;;;3.30;;
18526;SDS011;9393;42.158;24.748;2023-06-05T01:28:00;13.70;;;3.30;;
18526;SDS011;9393;42.158;24.748;2023-06-05T01:31:10;6.17;;;2.60;;
18526;SDS011;9393;42.158;24.748;2023-06-05T01:34:17;9.87;;;2.97;;
18526;SDS011;9393;42.158;24.748;2023-06-05T01:37:23;9.10;;;2.97;;
18526;SDS011;9393;42.158;24.748;2023-06-05T01:40:30;7.37;;;2.70;;
18526;SDS011;9393;42.158;24.748;2023-06-05T01:43:35;12.23;;;3.00;;
18526;SDS011;9393;42.158;24.748;2023-06-05T01:46:39;10.65;;;2.70;;
18526;SDS011;9393;42.158;24.748;2023-06-05T01:49:44;8.77;;;2.90;;
18526;SDS011;9393;42.158;24.748;2023-06-05T01:52:48;11.93;;;2.60;;
18526;SDS011;9393;42.158;24.748;2023-06-05T01:55:55;9.77;;;2.83;;
18526;SDS011;9393;42.158;24.748;2023-06-05T01:58:59;8.47;;;2.80;;
18526;SDS011;9393;42.158;24.748;2023-06-05T02:02:09;13.30;;;3.00;;
18526;SDS011;9393;42.158;24.748;2023-06-05T02:05:14;10.67;;;3.07;;
18526;SDS011;9393;42.158;24.748;2023-06-05T02:08:19;10.60;;;3.07;;
18526;SDS011;9393;42.158;24.748;2023-06-05T02:11:26;11.30;;;3.33;;
18526;SDS011;9393;42.158;24.748;2023-06-05T02:14:30;12.37;;;3.10;;
18526;SDS011;9393;42.158;24.748;2023-06-05T02:17:37;10.73;;;2.93;;
18526;SDS011;9393;42.158;24.748;2023-06-05T02:20:42;12.50;;;3.20;;
18526;SDS011;9393;42.158;24.748;2023-06-05T02:23:46;11.53;;;3.33;;
18526;SDS011;9393;42.158;24.748;2023-06-05T02:26:53;7.70;;;2.87;;
18526;SDS011;9393;42.158;24.748;2023-06-05T02:29:57;10.90;;;3.40;;
18526;SDS011;9393;42.158;24.748;2023-06-05T02:33:01;9.30;;;3.10;;
18526;SDS011;9393;42.158;24.748;2023-06-05T02:36:06;6.97;;;2.97;;
18526;SDS011;9393;42.158;24.748;2023-06-05T02:39:10;6.23;;;2.80;;
18526;SDS011;9393;42.158;24.748;2023-06-05T02:42:15;8.30;;;3.00;;
18526;SDS011;9393;42.158;24.748;2023-06-05T02:45:20;10.90;;;3.40;;
18526;SDS011;9393;42.158;24.748;2023-06-05T02:48:24;10.73;;;3.03;;
18526;SDS011;9393;42.158;24.748;2023-06-05T02:51:30;9.20;;;3.03;;
18526;SDS011;9393;42.158;24.748;2023-06-05T02:54:34;6.93;;;3.13;;
18526;SDS011;9393;42.158;24.748;2023-06-05T02:57:41;8.43;;;3.37;;
18526;SDS011;9393;42.158;24.748;2023-06-05T03:00:51;14.37;;;3.23;;
18526;SDS011;9393;42.158;24.748;2023-06-05T03:03:56;8.20;;;3.07;;
18526;SDS011;9393;42.158;24.748;2023-06-05T03:07:03;10.33;;;3.60;;
18526;SDS011;9393;42.158;24.748;2023-06-05T03:10:08;16.13;;;4.20;;
18526;SDS011;9393;42.158;24.748;2023-06-05T03:13:13;11.63;;;3.30;;
18526;SDS011;9393;42.158;24.748;2023-06-05T03:16:17;7.70;;;3.80;;
18526;SDS011;9393;42.158;24.748;2023-06-05T03:19:26;11.83;;;2.90;;
18526;SDS011;9393;42.158;24.748;2023-06-05T03:22:33;12.13;;;3.07;;
18526;SDS011;9393;42.158;24.748;2023-06-05T03:25:37;12.83;;;3.90;;
18526;SDS011;9393;42.158;24.748;2023-06-05T03:28:42;11.20;;;3.30;;
18526;SDS011;9393;42.158;24.748;2023-06-05T03:31:46;11.37;;;2.97;;
18526;SDS011;9393;42.158;24.748;2023-06-05T03:34:51;10.70;;;3.17;;
18526;SDS011;9393;42.158;24.748;2023-06-05T03:37:54;6.23;;;2.37;;
18526;SDS011;9393;42.158;24.748;2023-06-05T03:40:58;10.13;;;3.00;;
18526;SDS011;9393;42.158;24.748;2023-06-05T03:44:03;8.73;;;2.80;;
18526;SDS011;9393;42.158;24.748;2023-06-05T03:47:09;10.77;;;3.13;;
18526;SDS011;9393;42.158;24.748;2023-06-05T03:50:13;7.40;;;2.67;;
18526;SDS011;9393;42.158;24.748;2023-06-05T03:53:18;10.83;;;2.90;;
18526;SDS011;9393;42.158;24.748;2023-06-05T03:56:25;11.90;;;2.90;;
18526;SDS011;9393;42.158;24.748;2023-06-05T03:59:41;11.27;;;2.70;;
18526;SDS011;9393;42.158;24.748;2023-06-05T04:02:45;7.63;;;2.90;;
18526;SDS011;9393;42.158;24.748;2023-06-05T04:05:50;9.70;;;2.67;;
18526;SDS011;9393;42.158;24.748;2023-06-05T04:08:54;8.87;;;3.17;;
18526;SDS011;9393;42.158;24.748;2023-06-05T04:11:58;12.00;;;3.17;;
18526;SDS011;9393;42.158;24.748;2023-06-05T04:15:06;9.17;;;2.80;;
18526;SDS011;9393;42.158;24.748;2023-06-05T04:18:14;7.67;;;3.00;;
18526;SDS011;9393;42.158;24.748;2023-06-05T04:21:20;6.93;;;3.07;;
18526;SDS011;9393;42.158;24.748;2023-06-05T04:24:23;15.37;;;2.87;;
18526;SDS011;9393;42.158;24.748;2023-06-05T04:27:27;12.43;;;2.90;;
18526;SDS011;9393;42.158;24.748;2023-06-05T04:30:33;7.40;;;2.60;;
18526;SDS011;9393;42.158;24.748;2023-06-05T04:33:37;9.27;;;3.00;;
18526;SDS011;9393;42.158;24.748;2023-06-05T04:36:40;10.53;;;3.40;;
18526;SDS011;9393;42.158;24.748;2023-06-05T04:39:44;8.60;;;2.60;;
18526;SDS011;9393;42.158;24.748;2023-06-05T04:42:48;10.65;;;2.60;;
18526;SDS011;9393;42.158;24.748;2023-06-05T04:45:56;6.47;;;2.67;;
18526;SDS011;9393;42.158;24.748;2023-06-05T04:49:02;5.67;;;2.50;;
18526;SDS011;9393;42.158;24.748;2023-06-05T04:52:06;9.93;;;3.00;;
18526;SDS011;9393;42.158;24.748;2023-06-05T04:55:11;10.00;;;3.85;;
18526;SDS011;9393;42.158;24.748;2023-06-05T04:58:17;13.97;;;3.97;;
18526;SDS011;9393;42.158;24.748;2023-06-05T05:01:23;13.27;;;3.90;;
18526;SDS011;9393;42.158;24.748;2023-06-05T05:04:27;10.45;;;4.53;;
18526;SDS011;9393;42.158;24.748;2023-06-05T05:07:31;11.93;;;3.80;;
18526;SDS011;9393;42.158;24.748;2023-06-05T05:10:36;18.05;;;6.68;;
18526;SDS011;9393;42.158;24.748;2023-06-05T05:13:41;19.75;;;5.28;;
18526;SDS011;9393;42.158;24.748;2023-06-05T05:16:48;9.93;;;3.97;;
18526;SDS011;9393;42.158;24.748;2023-06-05T05:19:52;13.40;;;3.75;;
18526;SDS011;9393;42.158;24.748;2023-06-05T05:22:58;9.77;;;4.45;;
18526;SDS011;9393;42.158;24.748;2023-06-05T05:26:03;13.05;;;6.13;;
18526;SDS011;9393;42.158;24.748;2023-06-05T05:29:07;15.90;;;5.07;;
18526;SDS011;9393;42.158;24.748;2023-06-05T05:32:13;14.35;;;5.10;;
18526;SDS011;9393;42.158;24.748;2023-06-05T05:35:17;10.63;;;4.65;;
18526;SDS011;9393;42.158;24.748;2023-06-05T05:38:21;11.77;;;4.72;;
18526;SDS011;9393;42.158;24.748;2023-06-05T05:41:25;12.52;;;5.65;;
18526;SDS011;9393;42.158;24.748;2023-06-05T05:44:29;13.50;;;5.22;;
18526;SDS011;9393;42.158;24.748;2023-06-05T05:47:34;19.08;;;4.93;;
18526;SDS011;9393;42.158;24.748;2023-06-05T05:50:38;17.02;;;4.60;;
18526;SDS011;9393;42.158;24.748;2023-06-05T05:53:43;16.05;;;4.22;;
18526;SDS011;9393;42.158;24.748;2023-06-05T05:56:47;13.00;;;4.25;;
18526;SDS011;9393;42.158;24.748;2023-06-05T05:59:51;14.48;;;5.22;;
18526;SDS011;9393;42.158;24.748;2023-06-05T06:02:56;14.02;;;4.95;;
18526;SDS011;9393;42.158;24.748;2023-06-05T06:06:01;11.45;;;4.63;;
18526;SDS011;9393;42.158;24.748;2023-06-05T06:09:05;20.55;;;5.10;;
18526;SDS011;9393;42.158;24.748;2023-06-05T06:12:10;15.63;;;5.82;;
18526;SDS011;9393;42.158;24.748;2023-06-05T06:15:15;9.57;;;4.72;;
18526;SDS011;9393;42.158;24.748;2023-06-05T06:18:21;10.70;;;5.57;;
18526;SDS011;9393;42.158;24.748;2023-06-05T06:21:24;13.32;;;5.35;;
18526;SDS011;9393;42.158;24.748;2023-06-05T06:24:28;16.08;;;5.50;;
18526;SDS011;9393;42.158;24.748;2023-06-05T06:27:32;13.85;;;5.40;;
18526;SDS011;9393;42.158;24.748;2023-06-05T06:30:36;15.80;;;6.15;;
18526;SDS011;9393;42.158;24.748;2023-06-05T06:33:42;19.98;;;6.18;;
18526;SDS011;9393;42.158;24.748;2023-06-05T06:36:46;18.63;;;6.65;;
18526;SDS011;9393;42.158;24.748;2023-06-05T06:39:51;15.80;;;6.75;;
18526;SDS011;9393;42.158;24.748;2023-06-05T06:42:55;19.80;;;9.02;;
18526;SDS011;9393;42.158;24.748;2023-06-05T06:46:18;13.65;;;8.18;;
18526;SDS011;9393;42.158;24.748;2023-06-05T06:49:23;15.20;;;9.43;;
18526;SDS011;9393;42.158;24.748;2023-06-05T06:52:28;24.27;;;11.75;;
18526;SDS011;9393;42.158;24.748;2023-06-05T06:55:32;16.17;;;11.93;;
18526;SDS011;9393;42.158;24.748;2023-06-05T06:58:36;17.88;;;12.20;;
18526;SDS011;9393;42.158;24.748;2023-06-05T07:01:41;14.98;;;10.02;;
18526;SDS011;9393;42.158;24.748;2023-06-05T07:04:49;20.08;;;11.45;;
18526;SDS011;9393;42.158;24.748;2023-06-05T07:07:55;17.88;;;11.57;;
18526;SDS011;9393;42.158;24.748;2023-06-05T07:11:03;18.08;;;10.20;;
18526;SDS011;9393;42.158;24.748;2023-06-05T07:14:07;19.13;;;10.38;;
18526;SDS011;9393;42.158;24.748;2023-06-05T07:17:10;18.05;;;10.85;;
18526;SDS011;9393;42.158;24.748;2023-06-05T07:20:16;15.23;;;9.40;;
18526;SDS011;9393;42.158;24.748;2023-06-05T07:23:20;18.08;;;9.95;;
18526;SDS011;9393;42.158;24.748;2023-06-05T07:26:24;17.08;;;10.35;;
18526;SDS011;9393;42.158;24.748;2023-06-05T07:29:29;16.33;;;10.23;;
18526;SDS011;9393;42.158;24.748;2023-06-05T07:32:33;16.65;;;10.48;;
18526;SDS011;9393;42.158;24.748;2023-06-05T07:35:38;19.02;;;11.32;;
18526;SDS011;9393;42.158;24.748;2023-06-05T07:38:42;19.55;;;11.68;;
18526;SDS011;9393;42.158;24.748;2023-06-05T07:41:46;21.63;;;12.02;;
18526;SDS011;9393;42.158;24.748;2023-06-05T07:44:50;18.08;;;11.95;;
18526;SDS011;9393;42.158;24.748;2023-06-05T07:47:54;24.60;;;12.50;;
18526;SDS011;9393;42.158;24.748;2023-06-05T07:50:59;19.20;;;12.57;;
18526;SDS011;9393;42.158;24.748;2023-06-05T07:54:03;22.25;;;12.35;;
18526;SDS011;9393;42.158;24.748;2023-06-05T07:57:07;20.55;;;11.45;;
18526;SDS011;9393;42.158;24.748;2023-06-05T08:00:11;23.00;;;12.20;;
18526;SDS011;9393;42.158;24.748;2023-06-05T08:03:15;21.70;;;12.27;;
18526;SDS011;9393;42.158;24.748;2023-06-05T08:06:24;20.15;;;12.63;;
18526;SDS011;9393;42.158;24.748;2023-06-05T08:09:29;21.17;;;12.57;;
18526;SDS011;9393;42.158;24.748;2023-06-05T08:12:33;21.52;;;12.38;;
18526;SDS011;9393;42.158;24.748;2023-06-05T08:15:37;18.60;;;11.98;;
18526;SDS011;9393;42.158;24.748;2023-06-05T08:18:41;22.25;;;13.90;;
18526;SDS011;9393;42.158;24.748;2023-06-05T08:21:46;21.85;;;11.50;;
18526;SDS011;9393;42.158;24.748;2023-06-05T08:24:50;19.33;;;13.30;;
18526;SDS011;9393;42.158;24.748;2023-06-05T08:27:56;18.70;;;12.48;;
18526;SDS011;9393;42.158;24.748;2023-06-05T08:31:00;20.55;;;12.07;;
18526;SDS011;9393;42.158;24.748;2023-06-05T08:34:04;20.70;;;12.30;;
18526;SDS011;9393;42.158;24.748;2023-06-05T08:37:09;20.73;;;12.15;;
18526;SDS011;9393;42.158;24.748;2023-06-05T08:40:13;22.05;;;12.27;;
18526;SDS011;9393;42.158;24.748;2023-06-05T08:43:20;19.77;;;12.02;;
18526;SDS011;9393;42.158;24.748;2023-06-05T08:46:24;25.27;;;12.75;;
18526;SDS011;9393;42.158;24.748;2023-06-05T08:49:33;32.42;;;12.25;;
18526;SDS011;9393;42.158;24.748;2023-06-05T08:52:41;22.65;;;11.02;;
18526;SDS011;9393;42.158;24.748;2023-06-05T08:55:49;22.42;;;10.55;;
18526;SDS011;9393;42.158;24.748;2023-06-05T08:58:56;15.40;;;10.48;;
18526;SDS011;9393;42.158;24.748;2023-06-05T09:02:01;24.73;;;10.25;;
18526;SDS011;9393;42.158;24.748;2023-06-05T09:05:05;19.20;;;12.13;;
18526;SDS011;9393;42.158;24.748;2023-06-05T09:08:10;21.85;;;12.10;;
18526;SDS011;9393;42.158;24.748;2023-06-05T09:11:21;29.38;;;12.48;;
18526;SDS011;9393;42.158;24.748;2023-06-05T09:14:26;21.52;;;10.15;;
18526;SDS011;9393;42.158;24.748;2023-06-05T09:17:29;22.75;;;10.52;;
18526;SDS011;9393;42.158;24.748;2023-06-05T09:20:33;19.67;;;8.38;;
18526;SDS011;9393;42.158;24.748;2023-06-05T09:23:39;14.52;;;8.60;;
18526;SDS011;9393;42.158;24.748;2023-06-05T09:26:51;13.27;;;7.10;;
18526;SDS011;9393;42.158;24.748;2023-06-05T09:30:01;12.23;;;5.93;;
18526;SDS011;9393;42.158;24.748;2023-06-05T09:33:10;9.77;;;5.30;;
18526;SDS011;9393;42.158;24.748;2023-06-05T09:36:17;10.10;;;5.57;;
18526;SDS011;9393;42.158;24.748;2023-06-05T09:39:22;7.85;;;5.80;;
18526;SDS011;9393;42.158;24.748;2023-06-05T09:42:31;10.93;;;5.20;;
18526;SDS011;9393;42.158;24.748;2023-06-05T09:45:41;9.63;;;5.38;;
18526;SDS011;9393;42.158;24.748;2023-06-05T09:48:50;9.20;;;5.15;;
18526;SDS011;9393;42.158;24.748;2023-06-05T09:51:56;8.82;;;5.15;;
18526;SDS011;9393;42.158;24.748;2023-06-05T09:55:02;6.35;;;4.88;;
18526;SDS011;9393;42.158;24.748;2023-06-05T09:58:09;8.27;;;4.90;;
18526;SDS011;9393;42.158;24.748;2023-06-05T10:01:17;6.68;;;5.30;;
18526;SDS011;9393;42.158;24.748;2023-06-05T10:04:26;11.45;;;5.90;;
18526;SDS011;9393;42.158;24.748;2023-06-05T10:07:31;7.10;;;5.07;;
18526;SDS011;9393;42.158;24.748;2023-06-05T10:10:38;9.38;;;5.32;;
18526;SDS011;9393;42.158;24.748;2023-06-05T10:13:42;9.75;;;5.15;;
18526;SDS011;9393;42.158;24.748;2023-06-05T10:16:48;7.65;;;4.45;;
18526;SDS011;9393;42.158;24.748;2023-06-05T10:19:54;7.03;;;5.63;;
18526;SDS011;9393;42.158;24.748;2023-06-05T10:22:59;8.90;;;4.78;;
18526;SDS011;9393;42.158;24.748;2023-06-05T10:26:05;9.10;;;4.88;;
18526;SDS011;9393;42.158;24.748;2023-06-05T10:29:24;7.35;;;4.15;;
18526;SDS011;9393;42.158;24.748;2023-06-05T10:32:44;6.50;;;4.75;;
18526;SDS011;9393;42.158;24.748;2023-06-05T10:36:01;6.47;;;4.57;;
18526;SDS011;9393;42.158;24.748;2023-06-05T10:39:14;8.30;;;4.88;;
18526;SDS011;9393;42.158;24.748;2023-06-05T10:42:25;5.97;;;4.50;;
18526;SDS011;9393;42.158;24.748;2023-06-05T10:45:30;6.82;;;4.30;;
18526;SDS011;9393;42.158;24.748;2023-06-05T10:52:17;7.25;;;4.20;;
18526;SDS011;9393;42.158;24.748;2023-06-05T10:55:41;6.75;;;4.43;;
18526;SDS011;9393;42.158;24.748;2023-06-05T11:02:24;7.50;;;3.85;;
18526;SDS011;9393;42.158;24.748;2023-06-05T11:05:29;6.65;;;3.92;;
18526;SDS011;9393;42.158;24.748;2023-06-05T11:08:33;4.72;;;3.35;;
18526;SDS011;9393;42.158;24.748;2023-06-05T11:11:54;6.43;;;3.67;;
18526;SDS011;9393;42.158;24.748;2023-06-05T11:15:03;4.80;;;3.15;;
18526;SDS011;9393;42.158;24.748;2023-06-05T11:18:29;4.15;;;3.60;;
18526;SDS011;9393;42.158;24.748;2023-06-05T11:25:24;6.45;;;3.78;;
18526;SDS011;9393;42.158;24.748;2023-06-05T11:28:41;7.80;;;3.28;;
18526;SDS011;9393;42.158;24.748;2023-06-05T11:31:48;4.93;;;3.30;;
18526;SDS011;9393;42.158;24.748;2023-06-05T11:34:52;5.95;;;4.13;;
18526;SDS011;9393;42.158;24.748;2023-06-05T11:38:08;6.78;;;3.50;;
18526;SDS011;9393;42.158;24.748;2023-06-05T11:41:13;8.50;;;4.38;;
18526;SDS011;9393;42.158;24.748;2023-06-05T11:44:29;9.02;;;3.90;;
18526;SDS011;9393;42.158;24.748;2023-06-05T11:47:35;8.00;;;3.67;;
18526;SDS011;9393;42.158;24.748;2023-06-05T11:50:57;8.63;;;4.97;;
18526;SDS011;9393;42.158;24.748;2023-06-05T11:54:03;6.60;;;4.65;;
18526;SDS011;9393;42.158;24.748;2023-06-05T11:57:09;12.82;;;5.18;;
18526;SDS011;9393;42.158;24.748;2023-06-05T12:00:15;6.35;;;4.35;;
18526;SDS011;9393;42.158;24.748;2023-06-05T12:03:27;8.93;;;4.47;;
18526;SDS011;9393;42.158;24.748;2023-06-05T12:06:30;8.63;;;4.90;;
18526;SDS011;9393;42.158;24.748;2023-06-05T12:09:35;7.97;;;4.75;;
18526;SDS011;9393;42.158;24.748;2023-06-05T12:12:49;7.05;;;4.07;;
18526;SDS011;9393;42.158;24.748;2023-06-05T12:15:56;8.35;;;4.05;;
18526;SDS011;9393;42.158;24.748;2023-06-05T12:19:02;8.65;;;4.70;;
18526;SDS011;9393;42.158;24.748;2023-06-05T12:22:17;9.35;;;3.83;;
18526;SDS011;9393;42.158;24.748;2023-06-05T12:25:21;8.23;;;3.35;;
18526;SDS011;9393;42.158;24.748;2023-06-05T12:28:26;4.57;;;3.00;;
18526;SDS011;9393;42.158;24.748;2023-06-05T12:31:33;7.47;;;3.90;;
18526;SDS011;9393;42.158;24.748;2023-06-05T12:34:43;8.20;;;3.88;;
18526;SDS011;9393;42.158;24.748;2023-06-05T12:37:58;8.55;;;3.63;;
18526;SDS011;9393;42.158;24.748;2023-06-05T12:41:03;6.40;;;3.30;;
18526;SDS011;9393;42.158;24.748;2023-06-05T12:44:08;9.13;;;3.45;;
18526;SDS011;9393;42.158;24.748;2023-06-05T12:47:12;6.28;;;3.03;;
18526;SDS011;9393;42.158;24.748;2023-06-05T12:50:17;6.07;;;2.90;;
18526;SDS011;9393;42.158;24.748;2023-06-05T12:53:21;5.78;;;3.03;;
18526;SDS011;9393;42.158;24.748;2023-06-05T12:56:25;4.90;;;2.88;;
18526;SDS011;9393;42.158;24.748;2023-06-05T12:59:31;3.50;;;2.70;;
18526;SDS011;9393;42.158;24.748;2023-06-05T13:02:34;10.00;;;3.30;;
18526;SDS011;9393;42.158;24.748;2023-06-05T13:05:40;3.50;;;2.55;;
18526;SDS011;9393;42.158;24.748;2023-06-05T13:08:44;9.38;;;3.40;;
18526;SDS011;9393;42.158;24.748;2023-06-05T13:11:48;6.28;;;3.42;;
18526;SDS011;9393;42.158;24.748;2023-06-05T13:14:52;5.88;;;3.22;;
18526;SDS011;9393;42.158;24.748;2023-06-05T13:17:56;7.20;;;3.25;;
18526;SDS011;9393;42.158;24.748;2023-06-05T13:21:02;10.45;;;3.85;;
18526;SDS011;9393;42.158;24.748;2023-06-05T13:24:06;4.70;;;2.90;;
18526;SDS011;9393;42.158;24.748;2023-06-05T13:27:10;6.32;;;3.20;;
18526;SDS011;9393;42.158;24.748;2023-06-05T13:30:14;7.90;;;3.13;;
18526;SDS011;9393;42.158;24.748;2023-06-05T13:33:18;6.28;;;2.97;;
18526;SDS011;9393;42.158;24.748;2023-06-05T13:36:24;7.22;;;3.38;;
18526;SDS011;9393;42.158;24.748;2023-06-05T13:39:28;4.30;;;2.63;;
18526;SDS011;9393;42.158;24.748;2023-06-05T13:42:32;7.00;;;3.15;;
18526;SDS011;9393;42.158;24.748;2023-06-05T13:45:36;5.95;;;2.75;;
18526;SDS011;9393;42.158;24.748;2023-06-05T13:48:39;5.75;;;3.28;;
18526;SDS011;9393;42.158;24.748;2023-06-05T13:51:45;7.05;;;3.25;;
18526;SDS011;9393;42.158;24.748;2023-06-05T13:54:48;5.30;;;3.00;;
18526;SDS011;9393;42.158;24.748;2023-06-05T13:57:52;6.00;;;2.95;;
18526;SDS011;9393;42.158;24.748;2023-06-05T14:00:58;6.53;;;2.67;;
18526;SDS011;9393;42.158;24.748;2023-06-05T14:04:02;7.70;;;2.88;;
18526;SDS011;9393;42.158;24.748;2023-06-05T14:07:07;6.43;;;2.90;;
18526;SDS011;9393;42.158;24.748;2023-06-05T14:10:11;6.75;;;3.10;;
18526;SDS011;9393;42.158;24.748;2023-06-05T14:13:15;4.78;;;3.03;;
18526;SDS011;9393;42.158;24.748;2023-06-05T14:16:19;4.85;;;2.65;;
18526;SDS011;9393;42.158;24.748;2023-06-05T14:19:23;8.25;;;2.83;;
18526;SDS011;9393;42.158;24.748;2023-06-05T14:22:28;5.95;;;3.05;;
18526;SDS011;9393;42.158;24.748;2023-06-05T14:25:32;5.90;;;3.05;;
18526;SDS011;9393;42.158;24.748;2023-06-05T14:28:36;6.82;;;3.17;;
18526;SDS011;9393;42.158;24.748;2023-06-05T14:31:40;6.63;;;3.08;;
18526;SDS011;9393;42.158;24.748;2023-06-05T14:34:43;7.53;;;3.30;;
18526;SDS011;9393;42.158;24.748;2023-06-05T14:37:49;6.28;;;3.10;;
18526;SDS011;9393;42.158;24.748;2023-06-05T14:40:53;6.82;;;3.08;;
18526;SDS011;9393;42.158;24.748;2023-06-05T14:43:58;3.35;;;2.55;;
18526;SDS011;9393;42.158;24.748;2023-06-05T14:47:22;5.35;;;3.00;;
18526;SDS011;9393;42.158;24.748;2023-06-05T14:50:25;6.63;;;2.83;;
18526;SDS011;9393;42.158;24.748;2023-06-05T14:53:31;7.25;;;3.03;;
18526;SDS011;9393;42.158;24.748;2023-06-05T14:56:35;6.80;;;2.65;;
18526;SDS011;9393;42.158;24.748;2023-06-05T14:59:39;5.55;;;2.92;;
18526;SDS011;9393;42.158;24.748;2023-06-05T15:02:43;5.25;;;2.80;;
18526;SDS011;9393;42.158;24.748;2023-06-05T15:05:47;4.80;;;2.65;;
18526;SDS011;9393;42.158;24.748;2023-06-05T15:08:52;6.20;;;3.33;;
18526;SDS011;9393;42.158;24.748;2023-06-05T15:11:56;6.90;;;3.10;;
18526;SDS011;9393;42.158;24.748;2023-06-05T15:15:02;7.28;;;3.10;;
18526;SDS011;9393;42.158;24.748;2023-06-05T15:18:21;4.30;;;3.00;;
18526;SDS011;9393;42.158;24.748;2023-06-05T15:21:25;3.83;;;3.10;;
18526;SDS011;9393;42.158;24.748;2023-06-05T15:24:32;7.78;;;3.35;;
18526;SDS011;9393;42.158;24.748;2023-06-05T15:27:36;4.57;;;2.83;;
18526;SDS011;9393;42.158;24.748;2023-06-05T15:30:40;4.60;;;2.95;;
18526;SDS011;9393;42.158;24.748;2023-06-05T15:33:44;7.72;;;3.03;;
18526;SDS011;9393;42.158;24.748;2023-06-05T15:36:48;2.88;;;2.58;;
18526;SDS011;9393;42.158;24.748;2023-06-05T15:39:53;4.43;;;2.58;;
18526;SDS011;9393;42.158;24.748;2023-06-05T15:43:03;4.07;;;2.70;;
18526;SDS011;9393;42.158;24.748;2023-06-05T15:46:09;4.07;;;2.60;;
18526;SDS011;9393;42.158;24.748;2023-06-05T15:49:13;5.85;;;2.65;;
18526;SDS011;9393;42.158;24.748;2023-06-05T15:52:17;5.38;;;2.35;;
18526;SDS011;9393;42.158;24.748;2023-06-05T15:55:22;3.92;;;2.75;;
18526;SDS011;9393;42.158;24.748;2023-06-05T15:58:26;3.75;;;2.50;;
18526;SDS011;9393;42.158;24.748;2023-06-05T16:01:30;4.82;;;2.45;;
18526;SDS011;9393;42.158;24.748;2023-06-05T16:04:34;6.50;;;2.25;;
18526;SDS011;9393;42.158;24.748;2023-06-05T16:07:37;5.05;;;2.30;;
18526;SDS011;9393;42.158;24.748;2023-06-05T16:10:43;3.38;;;2.50;;
18526;SDS011;9393;42.158;24.748;2023-06-05T16:13:47;4.45;;;2.50;;
18526;SDS011;9393;42.158;24.748;2023-06-05T16:16:51;5.75;;;2.45;;
18526;SDS011;9393;42.158;24.748;2023-06-05T16:19:55;4.07;;;2.30;;
18526;SDS011;9393;42.158;24.748;2023-06-05T16:22:59;4.32;;;2.65;;
18526;SDS011;9393;42.158;24.748;2023-06-05T16:26:04;4.65;;;2.80;;
18526;SDS011;9393;42.158;24.748;2023-06-05T16:29:08;7.43;;;2.60;;
18526;SDS011;9393;42.158;24.748;2023-06-05T16:32:12;6.28;;;2.38;;
18526;SDS011;9393;42.158;24.748;2023-06-05T16:35:16;5.90;;;2.55;;
18526;SDS011;9393;42.158;24.748;2023-06-05T16:38:20;6.18;;;2.45;;
18526;SDS011;9393;42.158;24.748;2023-06-05T16:41:25;3.65;;;2.40;;
18526;SDS011;9393;42.158;24.748;2023-06-05T16:44:29;7.15;;;3.35;;
18526;SDS011;9393;42.158;24.748;2023-06-05T16:47:33;5.25;;;3.25;;
18526;SDS011;9393;42.158;24.748;2023-06-05T16:50:37;6.40;;;4.72;;
18526;SDS011;9393;42.158;24.748;2023-06-05T16:53:45;11.95;;;6.75;;
18526;SDS011;9393;42.158;24.748;2023-06-05T16:56:51;13.57;;;9.18;;
18526;SDS011;9393;42.158;24.748;2023-06-05T16:59:55;11.98;;;7.88;;
18526;SDS011;9393;42.158;24.748;2023-06-05T17:02:59;9.13;;;7.13;;
18526;SDS011;9393;42.158;24.748;2023-06-05T17:06:03;12.52;;;5.78;;
18526;SDS011;9393;42.158;24.748;2023-06-05T17:09:08;9.98;;;3.92;;
18526;SDS011;9393;42.158;24.748;2023-06-05T17:12:14;10.57;;;4.07;;
18526;SDS011;9393;42.158;24.748;2023-06-05T17:15:18;7.75;;;3.65;;
18526;SDS011;9393;42.158;24.748;2023-06-05T17:18:21;6.35;;;3.47;;
18526;SDS011;9393;42.158;24.748;2023-06-05T17:21:25;6.25;;;2.63;;
18526;SDS011;9393;42.158;24.748;2023-06-05T17:24:29;7.30;;;3.17;;
18526;SDS011;9393;42.158;24.748;2023-06-05T17:27:34;5.88;;;2.47;;
18526;SDS011;9393;42.158;24.748;2023-06-05T17:30:40;4.93;;;2.60;;
18526;SDS011;9393;42.158;24.748;2023-06-05T17:33:44;8.45;;;3.70;;
18526;SDS011;9393;42.158;24.748;2023-06-05T17:36:48;9.07;;;3.30;;
18526;SDS011;9393;42.158;24.748;2023-06-05T17:39:52;6.13;;;2.95;;
18526;SDS011;9393;42.158;24.748;2023-06-05T17:42:57;7.82;;;3.25;;
18526;SDS011;9393;42.158;24.748;2023-06-05T17:46:01;10.95;;;3.28;;
18526;SDS011;9393;42.158;24.748;2023-06-05T17:49:05;7.85;;;3.45;;
18526;SDS011;9393;42.158;24.748;2023-06-05T17:52:09;5.38;;;2.95;;
18526;SDS011;9393;42.158;24.748;2023-06-05T17:55:12;6.22;;;3.17;;
18526;SDS011;9393;42.158;24.748;2023-06-05T17:58:19;6.43;;;2.63;;
18526;SDS011;9393;42.158;24.748;2023-06-05T18:01:23;8.30;;;3.35;;
18526;SDS011;9393;42.158;24.748;2023-06-05T18:04:27;8.60;;;2.72;;
18526;SDS011;9393;42.158;24.748;2023-06-05T18:07:32;5.13;;;2.75;;
18526;SDS011;9393;42.158;24.748;2023-06-05T18:10:35;6.35;;;2.95;;
18526;SDS011;9393;42.158;24.748;2023-06-05T18:13:41;6.05;;;3.03;;
18526;SDS011;9393;42.158;24.748;2023-06-05T18:16:45;7.60;;;2.75;;
18526;SDS011;9393;42.158;24.748;2023-06-05T18:19:49;8.77;;;2.95;;
18526;SDS011;9393;42.158;24.748;2023-06-05T18:22:53;5.22;;;3.08;;
18526;SDS011;9393;42.158;24.748;2023-06-05T18:25:57;7.07;;;3.40;;
18526;SDS011;9393;42.158;24.748;2023-06-05T18:29:02;5.43;;;2.90;;
18526;SDS011;9393;42.158;24.748;2023-06-05T18:32:06;6.13;;;3.00;;
18526;SDS011;9393;42.158;24.748;2023-06-05T18:35:10;5.72;;;3.03;;
18526;SDS011;9393;42.158;24.748;2023-06-05T18:38:14;5.03;;;2.50;;
18526;SDS011;9393;42.158;24.748;2023-06-05T18:41:17;7.75;;;2.70;;